Time;durP1;ratioP1;P1;durP2;ratioP2;P2;SDS_P1;SDS_P2;PMS_P1;PMS_P2;Temp;Humidity;BMP_temperature;BMP_pressure;BME280_temperature;BME280_humidity;BME280_pressure;Samples;Min_cycle;Max_cycle;Signal;HPM_P1;HPM_P2
2022/01/29 00:00:00;;;;;;;16.47;5.97;;;4.90;99.90;;;;;;5071723;28;20441;-68
2022/01/29 00:02:26;;;;;;;9.83;4.50;;;4.90;99.90;;;;;;5072427;28;20238;-69
2022/01/29 00:04:52;;;;;;;10.10;4.13;;;4.90;99.90;;;;;;5071353;28;20215;-68
2022/01/29 00:07:18;;;;;;;11.00;4.40;;;5.00;99.90;;;;;;5053220;28;20579;-68
2022/01/29 00:09:44;;;;;;;7.70;4.73;;;5.00;99.90;;;;;;5051949;28;20759;-69
2022/01/29 00:12:11;;;;;;;10.77;5.37;;;5.00;99.90;;;;;;5045938;28;20232;-68
2022/01/29 00:14:37;;;;;;;13.10;7.33;;;5.00;99.90;;;;;;5036437;28;20469;-70
2022/01/29 00:17:03;;;;;;;13.93;5.33;;;5.00;99.90;;;;;;5051119;28;20526;-69
2022/01/29 00:19:29;;;;;;;6.33;4.73;;;5.00;99.90;;;;;;5053110;28;20480;-68
2022/01/29 00:21:54;;;;;;;13.67;5.77;;;5.00;99.90;;;;;;5052620;28;20454;-68
2022/01/29 00:24:20;;;;;;;10.87;5.90;;;5.00;99.90;;;;;;5051041;28;20648;-68
2022/01/29 00:26:46;;;;;;;9.00;4.60;;;5.00;99.90;;;;;;5054460;28;20336;-69
2022/01/29 00:29:21;;;;;;;9.77;5.37;;;5.00;99.90;;;;;;5034371;28;20237;-68
2022/01/29 00:31:47;;;;;;;9.57;4.60;;;5.00;99.90;;;;;;5030918;28;20228;-69
2022/01/29 00:34:12;;;;;;;10.53;5.13;;;5.10;99.90;;;;;;5031759;28;20466;-68
2022/01/29 00:36:38;;;;;;;10.93;5.27;;;5.00;99.90;;;;;;5037108;28;20467;-70
2022/01/29 00:39:04;;;;;;;13.10;6.00;;;5.10;99.90;;;;;;5050478;28;20227;-68
2022/01/29 00:41:30;;;;;;;9.23;4.77;;;5.10;99.90;;;;;;5051497;28;20458;-68
2022/01/29 00:43:56;;;;;;;6.97;5.17;;;5.10;99.90;;;;;;5048683;28;20281;-69
2022/01/29 00:46:21;;;;;;;9.50;4.97;;;5.00;99.90;;;;;;5030057;28;20311;-69
2022/01/29 00:48:47;;;;;;;6.47;4.67;;;5.00;99.90;;;;;;5051746;28;20725;-68
2022/01/29 00:51:13;;;;;;;10.20;5.70;;;5.00;99.90;;;;;;5034310;28;20249;-68
2022/01/29 00:53:39;;;;;;;10.90;4.93;;;5.00;99.90;;;;;;5050401;28;20266;-68
2022/01/29 00:56:06;;;;;;;8.27;4.07;;;5.00;99.90;;;;;;5051803;28;20274;-69
2022/01/29 00:58:33;;;;;;;8.93;5.00;;;5.00;99.90;;;;;;5034026;28;20259;-68
2022/01/29 01:00:59;;;;;;;10.47;4.37;;;5.00;99.90;;;;;;5033575;28;20450;-68
2022/01/29 01:03:25;;;;;;;5.43;3.13;;;5.00;99.90;;;;;;5051804;28;20828;-69
2022/01/29 01:05:51;;;;;;;9.40;4.73;;;5.00;99.90;;;;;;5051026;28;20450;-69
2022/01/29 01:08:17;;;;;;;7.10;4.20;;;5.00;99.90;;;;;;5050686;28;20833;-68
2022/01/29 01:10:43;;;;;;;6.00;4.40;;;4.90;99.90;;;;;;5045085;28;20263;-68
2022/01/29 01:13:09;;;;;;;8.47;4.70;;;4.90;99.90;;;;;;5046946;28;20273;-68
2022/01/29 01:15:35;;;;;;;8.30;4.30;;;4.90;99.90;;;;;;5051177;28;20227;-69
2022/01/29 01:18:00;;;;;;;8.57;4.37;;;4.90;99.90;;;;;;5051495;28;20565;-68
2022/01/29 01:20:27;;;;;;;9.97;4.10;;;4.90;99.90;;;;;;5050709;28;20220;-68
2022/01/29 01:22:52;;;;;;;6.50;3.73;;;5.00;99.90;;;;;;5044292;28;20261;-67
2022/01/29 01:25:18;;;;;;;8.13;4.83;;;5.00;99.90;;;;;;5049703;28;20469;-68
2022/01/29 01:27:44;;;;;;;5.63;3.80;;;5.00;99.90;;;;;;5045458;28;20224;-69
2022/01/29 01:30:10;;;;;;;7.73;4.80;;;5.00;99.90;;;;;;5058147;28;20220;-69
2022/01/29 01:32:37;;;;;;;10.33;4.07;;;4.90;99.90;;;;;;5048758;28;20211;-69
2022/01/29 01:35:26;;;;;;;7.30;4.53;;;4.90;99.90;;;;;;5045649;28;20551;-69
2022/01/29 01:37:57;;;;;;;6.77;4.70;;;4.90;99.90;;;;;;5049252;28;20874;-68
2022/01/29 01:40:25;;;;;;;7.83;4.17;;;4.90;99.90;;;;;;5051688;28;20462;-68
2022/01/29 01:42:58;;;;;;;7.30;4.17;;;4.90;99.90;;;;;;5030279;28;20502;-68
2022/01/29 01:45:23;;;;;;;8.10;4.07;;;4.90;99.90;;;;;;5042840;28;20489;-68
2022/01/29 01:47:49;;;;;;;8.50;5.30;;;5.00;99.90;;;;;;5044843;28;20447;-67
2022/01/29 01:50:15;;;;;;;8.20;4.57;;;5.00;99.90;;;;;;5039411;28;20262;-69
2022/01/29 01:52:41;;;;;;;10.60;4.60;;;4.90;99.90;;;;;;5035966;28;20705;-69
2022/01/29 01:55:08;;;;;;;12.97;5.53;;;4.90;99.90;;;;;;5031930;28;20436;-68
2022/01/29 01:57:34;;;;;;;9.77;5.00;;;4.90;99.90;;;;;;5038578;28;20445;-68
2022/01/29 02:00:00;;;;;;;10.57;4.97;;;4.90;99.90;;;;;;5040418;28;20438;-68
2022/01/29 02:02:25;;;;;;;8.33;4.87;;;4.90;99.90;;;;;;5036758;28;20215;-69
2022/01/29 02:04:51;;;;;;;10.27;5.07;;;4.90;99.90;;;;;;5037430;28;20240;-68
2022/01/29 02:07:18;;;;;;;10.80;4.90;;;4.80;99.90;;;;;;5041724;28;20239;-68
2022/01/29 02:09:44;;;;;;;6.50;4.43;;;4.80;99.90;;;;;;5038869;28;20224;-69
2022/01/29 02:12:11;;;;;;;12.10;5.57;;;4.80;99.90;;;;;;5048957;28;20454;-69
2022/01/29 02:14:38;;;;;;;10.43;6.10;;;4.80;99.90;;;;;;5040815;28;20461;-69
2022/01/29 02:17:05;;;;;;;11.60;5.50;;;4.80;99.90;;;;;;5050748;28;20983;-69
2022/01/29 02:19:32;;;;;;;9.20;5.57;;;4.80;99.90;;;;;;5050520;28;20839;-68
2022/01/29 02:21:58;;;;;;;11.57;5.23;;;4.80;99.90;;;;;;5056854;28;20457;-68
2022/01/29 02:24:25;;;;;;;11.43;5.57;;;4.70;99.90;;;;;;5051059;28;20467;-69
2022/01/29 02:26:51;;;;;;;11.03;5.80;;;4.70;99.90;;;;;;5062628;28;20449;-69
2022/01/29 02:29:18;;;;;;;8.50;5.53;;;4.70;99.90;;;;;;5057818;28;20534;-69
2022/01/29 02:31:51;;;;;;;8.10;5.00;;;4.70;99.90;;;;;;5060552;28;20460;-69
2022/01/29 02:34:17;;;;;;;8.73;5.40;;;4.60;99.90;;;;;;5061991;28;20472;-69
2022/01/29 02:36:44;;;;;;;14.37;6.67;;;4.60;99.90;;;;;;5060032;28;20453;-69
2022/01/29 02:39:12;;;;;;;9.97;5.47;;;4.60;99.90;;;;;;5018834;28;20480;-69
2022/01/29 02:41:41;;;;;;;10.33;4.60;;;4.60;99.90;;;;;;5023971;28;20481;-69
2022/01/29 02:44:08;;;;;;;12.73;5.93;;;4.60;99.90;;;;;;5065362;28;20524;-69
2022/01/29 02:46:54;;;;;;;16.80;7.03;;;4.60;99.90;;;;;;5047771;28;20459;-69
2022/01/29 02:49:25;;;;;;;11.03;5.50;;;4.60;99.90;;;;;;5050298;28;20463;-68
2022/01/29 02:51:58;;;;;;;14.27;6.60;;;4.60;99.90;;;;;;5048968;28;20446;-68
2022/01/29 02:54:25;;;;;;;9.53;6.10;;;4.60;99.90;;;;;;5016882;28;20876;-69
2022/01/29 02:56:52;;;;;;;11.07;6.53;;;4.60;99.90;;;;;;5022492;28;20509;-69
2022/01/29 02:59:18;;;;;;;14.07;7.13;;;4.60;99.90;;;;;;5052755;28;20457;-68
2022/01/29 03:01:43;;;;;;;13.80;6.33;;;4.60;99.90;;;;;;5041775;28;20457;-69
2022/01/29 03:04:09;;;;;;;15.47;6.50;;;4.60;99.90;;;;;;5068602;28;20310;-68
2022/01/29 03:06:35;;;;;;;10.80;5.70;;;4.70;99.90;;;;;;5036514;28;20215;-69
2022/01/29 03:09:03;;;;;;;11.10;6.20;;;4.60;99.90;;;;;;5050145;28;20457;-69
2022/01/29 03:11:29;;;;;;;12.57;5.73;;;4.60;99.90;;;;;;5045681;28;20463;-69
2022/01/29 03:13:55;;;;;;;15.87;6.37;;;4.60;99.90;;;;;;5039402;28;20465;-69
2022/01/29 03:16:20;;;;;;;21.10;7.00;;;4.60;99.90;;;;;;5050111;28;20227;-68
2022/01/29 03:18:46;;;;;;;14.10;6.40;;;4.70;99.90;;;;;;5046192;28;20228;-68
2022/01/29 03:21:12;;;;;;;12.43;7.00;;;4.70;99.90;;;;;;5035741;28;20724;-69
2022/01/29 03:23:38;;;;;;;15.60;6.50;;;4.70;99.90;;;;;;5059000;28;20310;-69
2022/01/29 03:26:06;;;;;;;12.60;6.73;;;4.70;99.90;;;;;;5049929;28;20542;-68
2022/01/29 03:28:32;;;;;;;13.47;6.60;;;4.70;99.90;;;;;;5056511;28;20247;-69
2022/01/29 03:30:58;;;;;;;14.53;6.07;;;4.60;99.90;;;;;;5065803;28;20450;-69
2022/01/29 03:33:24;;;;;;;12.93;6.50;;;4.60;99.90;;;;;;5053983;28;20227;-68
2022/01/29 03:35:50;;;;;;;14.37;7.70;;;4.60;99.90;;;;;;5034884;28;20223;-68
2022/01/29 03:38:17;;;;;;;10.77;6.37;;;4.70;99.90;;;;;;5058448;28;20934;-69
2022/01/29 03:40:45;;;;;;;13.67;6.63;;;4.70;99.90;;;;;;5037754;28;20462;-69
2022/01/29 03:43:14;;;;;;;12.43;6.47;;;4.60;99.90;;;;;;5062246;28;20465;-68
2022/01/29 03:45:40;;;;;;;16.07;7.00;;;4.60;99.90;;;;;;5057476;28;20442;-69
2022/01/29 03:48:09;;;;;;;13.80;6.60;;;4.60;99.90;;;;;;5053893;28;20451;-69
2022/01/29 03:50:36;;;;;;;11.33;5.80;;;4.60;99.90;;;;;;5053725;28;20224;-69
2022/01/29 03:53:02;;;;;;;9.57;5.37;;;4.60;99.90;;;;;;5052495;28;20450;-69
2022/01/29 03:55:28;;;;;;;13.00;6.23;;;4.50;99.90;;;;;;5048066;28;20457;-69
2022/01/29 03:57:54;;;;;;;11.63;5.60;;;4.50;99.90;;;;;;5053183;28;20438;-68
2022/01/29 04:00:20;;;;;;;10.80;5.70;;;4.50;99.90;;;;;;5052545;28;20208;-68
2022/01/29 04:02:45;;;;;;;15.47;6.50;;;4.50;99.90;;;;;;5033999;28;20754;-68
2022/01/29 04:05:11;;;;;;;9.10;6.20;;;4.50;99.90;;;;;;5028813;28;20243;-68
2022/01/29 04:07:39;;;;;;;10.60;6.00;;;4.50;99.90;;;;;;5051693;28;20234;-69
2022/01/29 04:10:05;;;;;;;11.50;5.13;;;4.50;99.90;;;;;;5053757;28;20243;-69
2022/01/29 04:12:37;;;;;;;12.00;6.30;;;4.50;99.90;;;;;;5053017;28;20546;-68
2022/01/29 04:15:03;;;;;;;12.13;5.43;;;4.50;99.90;;;;;;5051728;28;20454;-67
2022/01/29 04:17:28;;;;;;;13.90;6.60;;;4.50;99.90;;;;;;5051953;28;20477;-68
2022/01/29 04:19:54;;;;;;;12.73;6.30;;;4.50;99.90;;;;;;5051404;28;20295;-67
2022/01/29 04:22:20;;;;;;;12.33;5.90;;;4.50;99.90;;;;;;5052900;28;20315;-69
2022/01/29 04:24:45;;;;;;;13.80;6.23;;;4.50;99.90;;;;;;5052349;28;20322;-70
2022/01/29 04:27:20;;;;;;;12.63;6.77;;;4.50;99.90;;;;;;5050917;28;20310;-68
2022/01/29 04:29:56;;;;;;;10.77;6.00;;;4.50;99.90;;;;;;5052861;28;20230;-69
2022/01/29 04:32:35;;;;;;;10.50;5.63;;;4.50;99.90;;;;;;5053080;28;20458;-69
2022/01/29 04:35:01;;;;;;;11.23;5.50;;;4.50;99.90;;;;;;5033994;28;20543;-68
2022/01/29 04:37:27;;;;;;;8.30;4.97;;;4.60;99.90;;;;;;5051250;28;20482;-68
2022/01/29 04:39:52;;;;;;;15.93;6.50;;;4.60;99.90;;;;;;5049760;28;20226;-68
2022/01/29 04:42:18;;;;;;;9.47;5.20;;;4.60;99.90;;;;;;5051225;28;20235;-69
2022/01/29 04:44:44;;;;;;;10.63;4.43;;;4.60;99.90;;;;;;5045516;28;20266;-69
2022/01/29 04:47:09;;;;;;;11.73;5.83;;;4.60;99.90;;;;;;5030127;28;20282;-67
2022/01/29 04:49:35;;;;;;;10.30;5.47;;;4.60;99.90;;;;;;5030040;28;20240;-69
2022/01/29 04:52:00;;;;;;;13.17;6.90;;;4.60;99.90;;;;;;5035603;28;20230;-69
2022/01/29 04:54:26;;;;;;;9.10;4.90;;;4.60;99.90;;;;;;5049767;28;20223;-69
2022/01/29 04:56:52;;;;;;;13.00;5.27;;;4.60;99.90;;;;;;5048807;28;20216;-69
2022/01/29 04:59:17;;;;;;;9.53;5.00;;;4.50;99.90;;;;;;5049542;28;20257;-69
2022/01/29 05:01:43;;;;;;;9.53;5.23;;;4.50;99.90;;;;;;5041785;28;20227;-69
2022/01/29 05:04:09;;;;;;;8.40;4.30;;;4.50;99.90;;;;;;5050579;28;20234;-69
2022/01/29 05:06:34;;;;;;;8.73;6.07;;;4.50;99.90;;;;;;5049331;28;20293;-69
2022/01/29 05:09:00;;;;;;;11.63;5.20;;;4.60;99.90;;;;;;5050275;28;20220;-68
2022/01/29 05:11:26;;;;;;;14.23;5.43;;;4.60;99.90;;;;;;5050706;28;20563;-69
2022/01/29 05:13:52;;;;;;;7.70;4.73;;;4.60;99.90;;;;;;5049470;28;20243;-69
2022/01/29 05:27:03;;;;;;;10.53;5.17;;;4.60;99.90;;;;;;5054726;28;20462;-69
2022/01/29 05:29:31;;;;;;;7.57;3.63;;;4.60;99.90;;;;;;5049692;28;20454;-68
2022/01/29 05:32:02;;;;;;;8.17;4.57;;;4.60;99.90;;;;;;5033085;28;20481;-68
2022/01/29 05:34:28;;;;;;;11.23;5.10;;;4.60;99.90;;;;;;5012222;28;1075163;-68
2022/01/29 05:36:54;;;;;;;6.63;4.43;;;4.60;99.90;;;;;;5044223;28;20223;-69
2022/01/29 05:39:21;;;;;;;9.70;4.43;;;4.60;99.90;;;;;;5050336;28;20465;-68
2022/01/29 05:41:47;;;;;;;10.17;4.97;;;4.60;99.90;;;;;;5051558;28;20458;-69
2022/01/29 05:44:13;;;;;;;9.87;4.40;;;4.60;99.90;;;;;;5066875;28;20474;-69
2022/01/29 05:46:39;;;;;;;11.33;4.50;;;4.60;99.90;;;;;;5032705;28;20461;-70
2022/01/29 05:49:05;;;;;;;7.03;4.10;;;4.60;99.90;;;;;;5058559;28;20232;-70
2022/01/29 05:51:31;;;;;;;10.17;4.57;;;4.60;99.90;;;;;;5058803;28;20501;-69
2022/01/29 05:54:01;;;;;;;8.77;5.27;;;4.60;99.90;;;;;;5049579;28;20536;-69
2022/01/29 05:56:28;;;;;;;9.90;4.27;;;4.50;99.90;;;;;;5057413;28;20481;-68
2022/01/29 05:58:55;;;;;;;8.07;4.63;;;4.50;99.90;;;;;;5057533;28;20461;-68
2022/01/29 06:01:21;;;;;;;9.47;5.53;;;4.50;99.90;;;;;;5050506;28;20488;-68
2022/01/29 06:03:47;;;;;;;11.47;5.07;;;4.50;99.90;;;;;;5037618;28;20491;-68
2022/01/29 06:06:13;;;;;;;8.80;5.67;;;4.50;99.90;;;;;;5031276;28;20223;-69
2022/01/29 06:08:39;;;;;;;12.80;5.00;;;4.50;99.90;;;;;;5029284;28;20542;-69
2022/01/29 06:11:05;;;;;;;8.93;5.10;;;4.50;99.90;;;;;;5031503;28;20578;-69
2022/01/29 06:13:31;;;;;;;8.80;5.00;;;4.50;99.90;;;;;;5026487;28;20227;-68
2022/01/29 06:15:57;;;;;;;11.43;7.07;;;4.50;99.90;;;;;;5048783;28;20231;-68
2022/01/29 06:18:24;;;;;;;8.67;5.03;;;4.50;99.90;;;;;;5050764;28;20278;-68
2022/01/29 06:20:52;;;;;;;7.60;5.10;;;4.50;99.90;;;;;;5049326;28;20693;-68
2022/01/29 06:23:23;;;;;;;11.10;6.60;;;4.50;99.90;;;;;;5046866;28;20459;-69
2022/01/29 06:25:49;;;;;;;7.40;4.70;;;4.50;99.90;;;;;;5056458;28;20450;-69
2022/01/29 06:28:14;;;;;;;15.93;6.80;;;4.50;99.90;;;;;;5047705;28;20454;-68
2022/01/29 06:30:40;;;;;;;9.47;5.13;;;4.50;99.90;;;;;;5032567;28;20640;-70
2022/01/29 06:33:11;;;;;;;11.17;6.07;;;4.50;99.90;;;;;;5038071;28;20729;-69
2022/01/29 06:35:38;;;;;;;14.53;5.63;;;4.50;99.90;;;;;;5030048;28;20316;-70
2022/01/29 06:38:06;;;;;;;8.17;5.50;;;4.50;99.90;;;;;;5030938;28;20463;-69
2022/01/29 06:40:32;;;;;;;9.67;5.77;;;4.50;99.90;;;;;;5033065;28;20446;-70
2022/01/29 06:42:58;;;;;;;12.50;5.90;;;4.50;99.90;;;;;;5049307;28;20829;-69
2022/01/29 06:45:23;;;;;;;11.27;6.60;;;4.50;99.90;;;;;;5050586;28;20471;-68
2022/01/29 06:47:50;;;;;;;9.10;5.27;;;4.40;99.90;;;;;;5049822;28;20224;-69
2022/01/29 06:50:16;;;;;;;10.53;5.17;;;4.50;99.90;;;;;;5050670;28;20451;-68
2022/01/29 06:52:42;;;;;;;10.73;5.70;;;4.50;99.90;;;;;;5049051;28;20889;-69
2022/01/29 06:55:08;;;;;;;11.93;6.47;;;4.40;99.90;;;;;;5050362;28;20458;-68
2022/01/29 06:57:33;;;;;;;17.67;6.10;;;4.40;99.90;;;;;;5037419;28;20235;-69
2022/01/29 06:59:59;;;;;;;13.13;7.27;;;4.40;99.90;;;;;;5051476;28;20446;-69
2022/01/29 07:02:25;;;;;;;11.77;6.60;;;4.40;99.90;;;;;;5062062;28;20223;-69
2022/01/29 07:04:51;;;;;;;15.53;6.13;;;4.40;99.90;;;;;;5058774;28;20682;-70
2022/01/29 07:07:16;;;;;;;9.60;5.67;;;4.40;99.90;;;;;;5057921;28;20306;-70
2022/01/29 07:09:42;;;;;;;15.60;6.67;;;4.40;99.90;;;;;;5049924;28;20310;-70
2022/01/29 07:12:10;;;;;;;9.90;6.17;;;4.40;99.90;;;;;;5038533;28;20235;-69
2022/01/29 07:14:39;;;;;;;10.20;6.10;;;4.40;99.90;;;;;;5042141;28;20228;-69
2022/01/29 07:17:09;;;;;;;9.47;5.73;;;4.40;99.90;;;;;;5029572;28;20531;-69
2022/01/29 07:19:35;;;;;;;11.97;7.13;;;4.40;99.90;;;;;;5046882;28;20533;-70
2022/01/29 07:22:01;;;;;;;7.80;5.17;;;4.40;99.90;;;;;;5058332;28;20462;-69
2022/01/29 07:24:27;;;;;;;9.23;5.07;;;4.40;99.90;;;;;;5034058;28;20474;-69
2022/01/29 07:26:52;;;;;;;8.00;5.47;;;4.40;99.90;;;;;;5033608;28;20463;-69
2022/01/29 07:29:18;;;;;;;8.77;5.80;;;4.40;99.90;;;;;;5046142;28;20229;-70
2022/01/29 07:31:44;;;;;;;7.80;3.70;;;4.40;99.90;;;;;;5032998;28;20227;-70
2022/01/29 07:34:10;;;;;;;12.10;6.23;;;4.40;99.90;;;;;;5064317;28;20232;-69
2022/01/29 07:36:35;;;;;;;11.30;5.23;;;4.40;99.90;;;;;;5032566;28;20231;-70
2022/01/29 07:39:01;;;;;;;9.13;5.23;;;4.40;99.90;;;;;;5040082;28;20220;-68
2022/01/29 07:41:27;;;;;;;8.37;4.30;;;4.40;99.90;;;;;;5040559;28;20219;-68
2022/01/29 07:43:52;;;;;;;9.83;5.50;;;4.40;99.90;;;;;;5031280;28;20227;-68
2022/01/29 07:46:18;;;;;;;15.00;6.20;;;4.40;99.90;;;;;;5045572;28;20212;-68
2022/01/29 07:48:44;;;;;;;8.67;5.27;;;4.40;99.90;;;;;;5041507;28;20758;-69
2022/01/29 07:51:09;;;;;;;9.63;4.90;;;4.40;99.90;;;;;;5047235;28;20215;-69
2022/01/29 07:53:35;;;;;;;8.53;5.30;;;4.40;99.90;;;;;;5042188;28;20238;-68
2022/01/29 07:56:01;;;;;;;8.73;4.10;;;4.40;99.90;;;;;;5040509;28;20220;-70
2022/01/29 07:58:27;;;;;;;7.53;4.50;;;4.40;99.90;;;;;;5060688;28;20223;-69
2022/01/29 08:00:53;;;;;;;7.27;4.20;;;4.40;99.90;;;;;;5048773;28;20220;-69
2022/01/29 08:03:19;;;;;;;8.60;4.73;;;4.50;99.90;;;;;;5048241;28;20216;-68
2022/01/29 08:05:45;;;;;;;6.20;3.40;;;4.50;99.90;;;;;;5048908;28;20447;-69
2022/01/29 08:08:10;;;;;;;6.07;3.77;;;4.50;99.90;;;;;;5049550;28;20788;-69
2022/01/29 08:10:36;;;;;;;5.93;3.73;;;4.50;99.90;;;;;;5054213;28;20215;-70
2022/01/29 08:13:02;;;;;;;5.40;3.30;;;4.50;99.90;;;;;;5056454;28;20696;-69
2022/01/29 08:15:28;;;;;;;5.30;3.50;;;4.50;99.90;;;;;;5056128;28;20700;-68
2022/01/29 08:17:54;;;;;;;6.03;3.03;;;4.50;99.90;;;;;;5060506;28;20460;-69
2022/01/29 08:20:20;;;;;;;6.50;3.67;;;4.50;99.90;;;;;;5059771;28;20454;-68
2022/01/29 08:22:47;;;;;;;5.20;3.57;;;4.60;99.90;;;;;;5061281;28;20231;-70
2022/01/29 08:25:13;;;;;;;4.77;3.67;;;4.60;99.90;;;;;;5054252;28;20534;-68
2022/01/29 08:27:39;;;;;;;7.50;4.47;;;4.60;99.90;;;;;;5041878;28;20469;-70
2022/01/29 08:30:07;;;;;;;4.27;2.77;;;4.60;99.90;;;;;;5056993;28;20457;-69
2022/01/29 08:32:33;;;;;;;5.67;3.30;;;4.50;99.90;;;;;;5063329;28;20219;-69
2022/01/29 08:34:58;;;;;;;5.60;3.33;;;4.60;99.90;;;;;;5030940;28;20466;-69
2022/01/29 08:37:24;;;;;;;4.63;2.93;;;4.60;99.90;;;;;;5037965;28;20220;-69
2022/01/29 08:39:50;;;;;;;4.47;3.10;;;4.50;99.90;;;;;;5060665;28;20280;-68
2022/01/29 08:42:16;;;;;;;4.80;3.30;;;4.50;99.90;;;;;;5056404;28;20459;-69
2022/01/29 08:44:42;;;;;;;5.83;2.90;;;4.50;99.90;;;;;;5044489;28;20325;-69
2022/01/29 08:47:08;;;;;;;4.13;3.53;;;4.50;99.90;;;;;;5058077;28;20266;-69
2022/01/29 08:49:34;;;;;;;8.30;3.57;;;4.50;99.90;;;;;;5050563;28;20478;-69
2022/01/29 08:52:00;;;;;;;3.33;2.80;;;4.50;99.90;;;;;;5052245;28;20220;-68
2022/01/29 08:54:25;;;;;;;7.90;3.90;;;4.50;99.90;;;;;;5055738;28;20223;-68
2022/01/29 08:56:51;;;;;;;4.40;2.43;;;4.50;99.90;;;;;;5060733;28;20297;-68
2022/01/29 08:59:17;;;;;;;5.93;3.00;;;4.60;99.90;;;;;;5040168;28;20251;-69
2022/01/29 09:01:43;;;;;;;5.30;2.67;;;4.60;99.90;;;;;;5052042;28;20574;-69
2022/01/29 09:04:08;;;;;;;5.17;3.20;;;4.60;99.90;;;;;;5050667;28;20235;-68
2022/01/29 09:06:34;;;;;;;5.03;2.40;;;4.60;99.90;;;;;;5050419;28;20256;-70
2022/01/29 09:09:00;;;;;;;2.40;1.87;;;4.60;99.90;;;;;;5043280;28;20219;-69
2022/01/29 09:11:26;;;;;;;2.57;2.37;;;4.60;99.90;;;;;;5047726;28;20219;-68
2022/01/29 09:13:52;;;;;;;4.07;3.10;;;4.70;99.90;;;;;;5059127;28;20236;-69
2022/01/29 09:16:17;;;;;;;3.97;2.20;;;4.70;99.90;;;;;;5060363;28;20204;-69
2022/01/29 09:18:43;;;;;;;3.30;2.40;;;4.70;99.90;;;;;;5061984;28;20212;-70
2022/01/29 09:21:09;;;;;;;3.13;2.50;;;4.70;99.90;;;;;;5055790;28;20247;-70
2022/01/29 09:23:35;;;;;;;2.50;2.20;;;4.70;99.90;;;;;;5066259;28;20306;-69
2022/01/29 09:26:01;;;;;;;6.20;3.20;;;4.70;99.90;;;;;;5064011;28;20219;-70
2022/01/29 09:28:27;;;;;;;3.20;2.50;;;4.80;99.90;;;;;;5065111;28;20854;-68
2022/01/29 09:30:53;;;;;;;4.50;2.27;;;4.80;99.90;;;;;;5063193;28;20450;-69
2022/01/29 09:33:19;;;;;;;2.87;2.07;;;4.80;99.90;;;;;;5062386;28;20625;-68
2022/01/29 09:35:45;;;;;;;2.97;1.90;;;4.80;99.90;;;;;;5063760;28;20222;-68
2022/01/29 09:38:12;;;;;;;4.33;2.10;;;4.80;99.90;;;;;;5063786;28;20450;-68
2022/01/29 09:40:40;;;;;;;3.37;2.37;;;4.80;99.90;;;;;;5062502;28;20456;-70
2022/01/29 09:43:08;;;;;;;2.80;2.40;;;4.80;99.90;;;;;;5059055;28;20493;-70
2022/01/29 09:45:34;;;;;;;7.27;3.20;;;4.80;99.90;;;;;;5063557;28;20596;-69
2022/01/29 09:48:04;;;;;;;4.07;2.20;;;4.80;99.90;;;;;;5065686;28;20461;-68
2022/01/29 09:50:36;;;;;;;2.03;1.80;;;4.80;99.90;;;;;;5061530;28;20463;-68
2022/01/29 09:53:03;;;;;;;2.57;2.00;;;4.80;99.90;;;;;;5059071;28;20840;-68
2022/01/29 09:55:29;;;;;;;2.10;1.90;;;4.80;99.90;;;;;;5048368;28;20462;-68
2022/01/29 09:57:56;;;;;;;3.23;2.20;;;4.80;99.90;;;;;;5038996;28;20517;-69
2022/01/29 10:00:23;;;;;;;3.43;1.63;;;4.90;99.90;;;;;;5044555;28;20466;-68
2022/01/29 10:03:10;;;;;;;2.00;1.90;;;4.90;99.90;;;;;;5042271;28;20469;-69
2022/01/29 10:05:41;;;;;;;2.50;1.77;;;4.90;99.90;;;;;;5047406;28;20948;-69
2022/01/29 10:08:08;;;;;;;2.37;1.90;;;4.90;99.90;;;;;;5045938;28;20459;-69
2022/01/29 10:10:47;;;;;;;2.50;2.20;;;5.00;99.90;;;;;;5043810;28;20454;-69
2022/01/29 10:13:32;;;;;;;1.60;1.50;;;5.00;99.90;;;;;;5049744;28;20462;-69
2022/01/29 10:16:08;;;;;;;1.97;1.77;;;5.00;99.90;;;;;;5048676;28;20521;-68
2022/01/29 10:18:35;;;;;;;1.67;1.53;;;5.00;99.90;;;;;;5050523;28;20470;-69
2022/01/29 10:21:23;;;;;;;1.80;1.60;;;5.00;99.90;;;;;;5048704;28;20451;-69
2022/01/29 10:24:00;;;;;;;2.03;1.80;;;5.00;99.90;;;;;;5075663;28;20474;-69
2022/01/29 10:26:34;;;;;;;3.00;1.70;;;5.00;99.90;;;;;;5058742;28;20449;-68
2022/01/29 10:29:02;;;;;;;2.47;1.90;;;5.00;99.90;;;;;;5068451;28;20452;-69
2022/01/29 10:31:48;;;;;;;1.73;1.53;;;5.10;99.90;;;;;;5058184;28;20536;-68
2022/01/29 10:34:26;;;;;;;2.03;1.80;;;5.00;99.90;;;;;;5054098;28;20529;-70
2022/01/29 10:37:13;;;;;;;3.00;1.87;;;5.00;99.90;;;;;;5057321;28;20446;-68
2022/01/29 10:39:40;;;;;;;2.57;1.60;;;5.00;99.90;;;;;;5039660;28;20450;-70
2022/01/29 10:42:14;;;;;;;3.00;2.00;;;5.10;99.90;;;;;;5053910;28;20495;-70
2022/01/29 10:44:44;;;;;;;1.70;1.53;;;5.10;99.90;;;;;;5043071;28;20493;-70
2022/01/29 10:47:11;;;;;;;3.10;1.60;;;5.10;99.90;;;;;;5048566;28;20478;-69
2022/01/29 10:49:44;;;;;;;2.53;1.83;;;5.10;99.90;;;;;;5064965;28;20497;-69
2022/01/29 10:52:12;;;;;;;2.30;1.60;;;5.10;99.90;;;;;;5048497;28;20470;-70
2022/01/29 10:54:39;;;;;;;2.23;1.73;;;5.10;99.90;;;;;;5041777;28;20462;-69
2022/01/29 10:57:16;;;;;;;1.97;1.77;;;5.10;99.90;;;;;;5044576;28;20525;-70
2022/01/29 10:59:54;;;;;;;3.57;1.97;;;5.20;99.90;;;;;;5030940;28;20454;-69
2022/01/29 11:02:23;;;;;;;4.30;2.70;;;5.20;99.90;;;;;;5038298;28;20478;-68
2022/01/29 11:04:49;;;;;;;1.80;1.70;;;5.20;99.90;;;;;;5047627;28;20517;-70
2022/01/29 11:07:20;;;;;;;2.40;1.60;;;5.20;99.90;;;;;;5028097;28;20995;-70
2022/01/29 11:09:50;;;;;;;4.50;2.50;;;5.20;99.90;;;;;;5036586;28;20216;-70
2022/01/29 11:12:22;;;;;;;3.03;2.30;;;5.20;99.90;;;;;;5035824;28;20446;-69
2022/01/29 11:14:49;;;;;;;2.87;1.87;;;5.30;99.90;;;;;;5046793;28;20542;-69
2022/01/29 11:17:16;;;;;;;2.30;2.07;;;5.30;99.90;;;;;;5048654;28;20466;-69
2022/01/29 11:19:43;;;;;;;2.10;1.90;;;5.30;99.90;;;;;;5029934;28;20458;-70
2022/01/29 11:22:10;;;;;;;2.70;2.23;;;5.30;99.90;;;;;;5054294;28;20976;-70
2022/01/29 11:24:37;;;;;;;3.03;2.17;;;5.30;99.90;;;;;;5043131;28;20467;-70
2022/01/29 11:27:18;;;;;;;2.53;2.33;;;5.30;99.90;;;;;;5062053;28;20565;-70
2022/01/29 11:30:10;;;;;;;4.27;2.90;;;5.40;99.90;;;;;;5055799;28;20520;-71
2022/01/29 11:32:41;;;;;;;3.10;2.13;;;5.40;99.90;;;;;;5029273;28;20798;-70
2022/01/29 11:35:25;;;;;;;3.30;2.47;;;5.40;99.90;;;;;;5043775;28;20473;-70
2022/01/29 11:37:57;;;;;;;2.40;2.20;;;5.40;99.90;;;;;;5044849;28;20466;-70
2022/01/29 11:40:29;;;;;;;2.63;2.37;;;5.40;99.90;;;;;;5048682;28;20631;-70
2022/01/29 11:43:07;;;;;;;4.27;3.10;;;5.40;99.90;;;;;;5041142;28;20457;-70
2022/01/29 11:45:49;;;;;;;3.67;2.50;;;5.40;99.90;;;;;;5067655;28;20469;-70
2022/01/29 11:48:28;;;;;;;2.97;2.47;;;5.40;99.90;;;;;;5047856;28;20489;-69
2022/01/29 11:51:01;;;;;;;2.93;2.17;;;5.40;99.90;;;;;;5066895;28;20442;-70
2022/01/29 11:53:49;;;;;;;1.73;1.50;;;5.40;99.90;;;;;;5053906;28;21010;-70
2022/01/29 11:56:36;;;;;;;3.30;2.30;;;5.40;99.90;;;;;;5057546;28;20451;-70
2022/01/29 11:59:20;;;;;;;2.90;2.60;;;5.40;99.90;;;;;;5062624;28;20587;-70
2022/01/29 12:01:47;;;;;;;5.83;4.13;;;5.50;99.90;;;;;;5063289;28;20461;-70
2022/01/29 12:04:16;;;;;;;6.07;3.60;;;5.50;99.90;;;;;;5048742;28;20466;-69
2022/01/29 12:07:07;;;;;;;6.27;4.00;;;5.50;99.90;;;;;;5047246;28;20453;-70
2022/01/29 12:09:45;;;;;;;5.17;3.80;;;5.50;99.90;;;;;;5034644;28;20462;-70
2022/01/29 12:12:17;;;;;;;4.40;3.67;;;5.50;99.90;;;;;;5032639;28;20509;-70
2022/01/29 12:14:44;;;;;;;8.27;6.50;;;5.50;99.90;;;;;;5043261;28;20457;-72
2022/01/29 12:17:10;;;;;;;7.33;5.20;;;5.50;99.90;;;;;;5050915;28;20474;-70
2022/01/29 12:19:40;;;;;;;9.73;6.27;;;5.50;99.90;;;;;;5051564;28;20446;-70
2022/01/29 12:22:19;;;;;;;4.33;4.03;;;5.60;99.90;;;;;;5051904;28;20818;-71
2022/01/29 12:24:49;;;;;;;3.60;3.20;;;5.60;99.90;;;;;;5055412;28;20480;-71
2022/01/29 12:27:15;;;;;;;2.23;2.03;;;5.60;99.90;;;;;;5054586;28;20985;-72
2022/01/29 12:29:41;;;;;;;2.97;2.63;;;5.60;99.90;;;;;;5051769;28;20454;-71
2022/01/29 12:32:11;;;;;;;21.77;11.97;;;5.60;99.90;;;;;;5050517;28;20228;-71
2022/01/29 12:34:37;;;;;;;17.10;11.50;;;5.60;99.90;;;;;;5027457;28;20816;-71
2022/01/29 12:37:21;;;;;;;10.50;6.43;;;5.70;99.90;;;;;;5052370;28;20481;-71
2022/01/29 12:39:49;;;;;;;12.20;7.70;;;5.70;99.90;;;;;;5032533;28;20475;-71
2022/01/29 12:45:06;;;;;;;22.67;13.07;;;5.70;99.90;;;;;;5042388;28;20475;-70
2022/01/29 12:47:33;;;;;;;25.73;13.80;;;5.70;99.90;;;;;;5050705;28;20478;-70
2022/01/29 12:49:59;;;;;;;27.33;13.00;;;5.80;99.90;;;;;;5044710;28;20966;-70
2022/01/29 12:52:26;;;;;;;28.20;16.80;;;5.80;99.90;;;;;;5066579;28;20457;-70
2022/01/29 12:55:04;;;;;;;37.03;19.47;;;5.80;99.90;;;;;;5067742;28;20763;-70
2022/01/29 12:57:43;;;;;;;29.33;15.20;;;5.80;99.90;;;;;;5075630;28;20449;-70
2022/01/29 13:05:25;;;;;;;3.20;2.53;;;5.90;99.90;;;;;;5031464;28;20470;-69
2022/01/29 13:07:51;;;;;;;2.60;1.40;;;5.90;99.90;;;;;;5009893;28;20601;-70
2022/01/29 13:10:17;;;;;;;2.23;2.03;;;5.90;99.90;;;;;;5030102;28;20224;-70
2022/01/29 13:12:44;;;;;;;1.80;1.40;;;5.90;99.90;;;;;;5011340;28;20217;-70
2022/01/29 13:15:11;;;;;;;20.30;12.10;;;6.00;99.90;;;;;;5009387;28;20764;-69